sensor_id;sensor_type;location;lat;lon;timestamp;pressure;altitude;pressure_sealevel;temperature;humidity
56912;BME280;42800;53.928;27.662;2023-01-01T00:00:58;98646.59;;;6.31;100.00
56912;BME280;42800;53.928;27.662;2023-01-01T00:03:25;98647.91;;;6.21;100.00
56912;BME280;42800;53.928;27.662;2023-01-01T00:05:51;98638.06;;;6.32;100.00
56912;BME280;42800;53.928;27.662;2023-01-01T00:08:17;98639.22;;;6.31;100.00
56912;BME280;42800;53.928;27.662;2023-01-01T00:10:44;98646.41;;;6.40;100.00
56912;BME280;42800;53.928;27.662;2023-01-01T00:13:14;98667.53;;;6.58;100.00
56912;BME280;42800;53.928;27.662;2023-01-01T00:15:40;98668.94;;;6.36;100.00
56912;BME280;42800;53.928;27.662;2023-01-01T00:18:07;98669.56;;;6.62;100.00
56912;BME280;42800;53.928;27.662;2023-01-01T00:20:34;98669.00;;;6.56;100.00
56912;BME280;42800;53.928;27.662;2023-01-01T00:23:02;98686.75;;;6.34;100.00
56912;BME280;42800;53.928;27.662;2023-01-01T00:25:28;98681.94;;;6.43;100.00
56912;BME280;42800;53.928;27.662;2023-01-01T00:27:56;98676.16;;;6.60;100.00
56912;BME280;42800;53.928;27.662;2023-01-01T00:30:23;98673.84;;;6.63;100.00
56912;BME280;42800;53.928;27.662;2023-01-01T00:32:49;98680.78;;;6.44;100.00
56912;BME280;42800;53.928;27.662;2023-01-01T00:35:16;98658.03;;;6.36;100.00
56912;BME280;42800;53.928;27.662;2023-01-01T00:37:43;98640.59;;;6.25;100.00
56912;BME280;42800;53.928;27.662;2023-01-01T00:40:10;98619.91;;;6.36;100.00
56912;BME280;42800;53.928;27.662;2023-01-01T00:42:36;98611.22;;;6.47;100.00
56912;BME280;42800;53.928;27.662;2023-01-01T00:45:09;98611.31;;;6.50;100.00
56912;BME280;42800;53.928;27.662;2023-01-01T00:47:38;98625.34;;;6.52;100.00
56912;BME280;42800;53.928;27.662;2023-01-01T00:50:05;98627.56;;;6.47;100.00
56912;BME280;42800;53.928;27.662;2023-01-01T00:52:31;98621.81;;;6.36;100.00
56912;BME280;42800;53.928;27.662;2023-01-01T00:54:58;98588.84;;;6.53;100.00
56912;BME280;42800;53.928;27.662;2023-01-01T00:57:24;98591.28;;;6.74;100.00
56912;BME280;42800;53.928;27.662;2023-01-01T00:59:50;98592.69;;;6.68;100.00
56912;BME280;42800;53.928;27.662;2023-01-01T01:02:17;98582.56;;;6.53;100.00
56912;BME280;42800;53.928;27.662;2023-01-01T01:04:43;98574.41;;;6.53;100.00
56912;BME280;42800;53.928;27.662;2023-01-01T01:07:09;98576.63;;;6.47;100.00
56912;BME280;42800;53.928;27.662;2023-01-01T01:09:36;98566.75;;;6.58;100.00
56912;BME280;42800;53.928;27.662;2023-01-01T01:12:03;98558.44;;;6.51;100.00
56912;BME280;42800;53.928;27.662;2023-01-01T01:14:29;98529.97;;;6.49;100.00
56912;BME280;42800;53.928;27.662;2023-01-01T01:16:56;98522.22;;;6.67;100.00
56912;BME280;42800;53.928;27.662;2023-01-01T01:19:22;98529.69;;;6.54;100.00
56912;BME280;42800;53.928;27.662;2023-01-01T01:21:50;98518.56;;;6.43;100.00
56912;BME280;42800;53.928;27.662;2023-01-01T01:24:17;98512.94;;;6.36;100.00
56912;BME280;42800;53.928;27.662;2023-01-01T01:26:44;98493.88;;;6.36;100.00
56912;BME280;42800;53.928;27.662;2023-01-01T01:29:11;98492.38;;;6.39;100.00
56912;BME280;42800;53.928;27.662;2023-01-01T01:31:37;98493.16;;;6.39;100.00
56912;BME280;42800;53.928;27.662;2023-01-01T01:34:03;98496.56;;;6.52;100.00
56912;BME280;42800;53.928;27.662;2023-01-01T01:36:30;98506.94;;;6.62;100.00
56912;BME280;42800;53.928;27.662;2023-01-01T01:38:56;98510.81;;;6.61;100.00
56912;BME280;42800;53.928;27.662;2023-01-01T01:41:24;98526.69;;;6.75;100.00
56912;BME280;42800;53.928;27.662;2023-01-01T01:43:53;98538.22;;;6.52;100.00
56912;BME280;42800;53.928;27.662;2023-01-01T01:46:25;98542.66;;;6.76;100.00
56912;BME280;42800;53.928;27.662;2023-01-01T01:48:54;98566.22;;;6.84;100.00
56912;BME280;42800;53.928;27.662;2023-01-01T01:51:26;98577.06;;;6.33;100.00
56912;BME280;42800;53.928;27.662;2023-01-01T01:53:55;98548.47;;;6.59;100.00
56912;BME280;42800;53.928;27.662;2023-01-01T01:56:27;98553.06;;;6.71;100.00
56912;BME280;42800;53.928;27.662;2023-01-01T01:58:55;98558.78;;;6.34;100.00
56912;BME280;42800;53.928;27.662;2023-01-01T02:01:22;98556.16;;;6.53;100.00
56912;BME280;42800;53.928;27.662;2023-01-01T02:03:54;98555.16;;;6.62;100.00
56912;BME280;42800;53.928;27.662;2023-01-01T02:06:22;98554.19;;;6.70;100.00
56912;BME280;42800;53.928;27.662;2023-01-01T02:08:50;98570.09;;;6.68;100.00
56912;BME280;42800;53.928;27.662;2023-01-01T02:11:16;98567.22;;;6.45;100.00
56912;BME280;42800;53.928;27.662;2023-01-01T02:13:42;98545.91;;;6.66;100.00
56912;BME280;42800;53.928;27.662;2023-01-01T02:16:12;98531.56;;;6.34;100.00
56912;BME280;42800;53.928;27.662;2023-01-01T02:18:45;98522.50;;;6.46;100.00
56912;BME280;42800;53.928;27.662;2023-01-01T02:21:19;98512.13;;;6.35;100.00
56912;BME280;42800;53.928;27.662;2023-01-01T02:24:00;98512.28;;;6.58;100.00
56912;BME280;42800;53.928;27.662;2023-01-01T02:26:49;98528.63;;;6.58;100.00
56912;BME280;42800;53.928;27.662;2023-01-01T02:29:29;98550.50;;;6.78;100.00
56912;BME280;42800;53.928;27.662;2023-01-01T02:32:00;98543.47;;;6.77;100.00
56912;BME280;42800;53.928;27.662;2023-01-01T02:34:31;98561.28;;;6.90;100.00
56912;BME280;42800;53.928;27.662;2023-01-01T02:37:02;98591.19;;;6.87;100.00
56912;BME280;42800;53.928;27.662;2023-01-01T02:39:32;98603.13;;;6.82;100.00
56912;BME280;42800;53.928;27.662;2023-01-01T02:42:02;98600.59;;;6.57;100.00
56912;BME280;42800;53.928;27.662;2023-01-01T02:44:34;98573.84;;;6.79;100.00
56912;BME280;42800;53.928;27.662;2023-01-01T02:47:09;98567.91;;;6.73;100.00
56912;BME280;42800;53.928;27.662;2023-01-01T02:49:38;98555.66;;;6.83;100.00
56912;BME280;42800;53.928;27.662;2023-01-01T02:52:09;98551.75;;;6.65;100.00
56912;BME280;42800;53.928;27.662;2023-01-01T02:54:42;98543.19;;;6.82;100.00
56912;BME280;42800;53.928;27.662;2023-01-01T02:57:19;98534.38;;;6.89;100.00
56912;BME280;42800;53.928;27.662;2023-01-01T03:00:00;98545.97;;;6.86;100.00
56912;BME280;42800;53.928;27.662;2023-01-01T03:03:07;98543.59;;;7.00;100.00
56912;BME280;42800;53.928;27.662;2023-01-01T03:05:40;98541.38;;;6.70;100.00
56912;BME280;42800;53.928;27.662;2023-01-01T03:08:30;98526.44;;;6.99;100.00
56912;BME280;42800;53.928;27.662;2023-01-01T03:11:03;98531.31;;;6.90;100.00
56912;BME280;42800;53.928;27.662;2023-01-01T03:13:36;98550.31;;;6.87;100.00
56912;BME280;42800;53.928;27.662;2023-01-01T03:16:11;98537.34;;;7.19;100.00
56912;BME280;42800;53.928;27.662;2023-01-01T03:18:45;98544.44;;;6.69;100.00
56912;BME280;42800;53.928;27.662;2023-01-01T03:21:16;98542.13;;;6.87;100.00
56912;BME280;42800;53.928;27.662;2023-01-01T03:23:48;98523.16;;;6.74;100.00
56912;BME280;42800;53.928;27.662;2023-01-01T03:26:20;98519.25;;;6.91;100.00
56912;BME280;42800;53.928;27.662;2023-01-01T03:28:52;98522.31;;;6.90;100.00
56912;BME280;42800;53.928;27.662;2023-01-01T03:31:23;98539.47;;;6.90;100.00
56912;BME280;42800;53.928;27.662;2023-01-01T03:33:53;98542.47;;;6.85;100.00
56912;BME280;42800;53.928;27.662;2023-01-01T03:36:25;98550.81;;;6.76;100.00
56912;BME280;42800;53.928;27.662;2023-01-01T03:38:56;98543.81;;;6.75;100.00
56912;BME280;42800;53.928;27.662;2023-01-01T03:41:33;98535.00;;;6.82;100.00
56912;BME280;42800;53.928;27.662;2023-01-01T03:44:03;98511.53;;;6.93;100.00
56912;BME280;42800;53.928;27.662;2023-01-01T03:46:34;98517.84;;;6.97;100.00
56912;BME280;42800;53.928;27.662;2023-01-01T03:49:02;98516.78;;;6.86;100.00
56912;BME280;42800;53.928;27.662;2023-01-01T03:51:43;98507.53;;;7.06;100.00
56912;BME280;42800;53.928;27.662;2023-01-01T03:54:20;98496.69;;;7.10;100.00
56912;BME280;42800;53.928;27.662;2023-01-01T03:56:55;98492.53;;;6.97;100.00
56912;BME280;42800;53.928;27.662;2023-01-01T03:59:28;98502.59;;;6.77;100.00
56912;BME280;42800;53.928;27.662;2023-01-01T04:02:01;98492.84;;;6.76;100.00
56912;BME280;42800;53.928;27.662;2023-01-01T04:04:29;98501.91;;;6.80;100.00
56912;BME280;42800;53.928;27.662;2023-01-01T04:06:56;98483.59;;;6.80;100.00
56912;BME280;42800;53.928;27.662;2023-01-01T04:09:28;98487.63;;;6.87;100.00
56912;BME280;42800;53.928;27.662;2023-01-01T04:11:56;98492.09;;;7.14;100.00
56912;BME280;42800;53.928;27.662;2023-01-01T04:14:27;98507.06;;;6.85;100.00
56912;BME280;42800;53.928;27.662;2023-01-01T04:16:54;98499.63;;;7.01;100.00
56912;BME280;42800;53.928;27.662;2023-01-01T04:19:21;98502.69;;;7.19;100.00
56912;BME280;42800;53.928;27.662;2023-01-01T04:21:48;98500.41;;;7.02;100.00
56912;BME280;42800;53.928;27.662;2023-01-01T04:24:14;98492.00;;;6.91;100.00
56912;BME280;42800;53.928;27.662;2023-01-01T04:26:40;98500.84;;;7.04;100.00
56912;BME280;42800;53.928;27.662;2023-01-01T04:29:06;98506.00;;;7.09;100.00
56912;BME280;42800;53.928;27.662;2023-01-01T04:31:33;98488.28;;;6.99;100.00
56912;BME280;42800;53.928;27.662;2023-01-01T04:33:59;98486.91;;;6.90;100.00
56912;BME280;42800;53.928;27.662;2023-01-01T04:36:26;98485.13;;;6.97;100.00
56912;BME280;42800;53.928;27.662;2023-01-01T04:38:52;98473.72;;;6.92;100.00
56912;BME280;42800;53.928;27.662;2023-01-01T04:41:19;98464.03;;;6.75;100.00
56912;BME280;42800;53.928;27.662;2023-01-01T04:43:46;98451.84;;;6.88;100.00
56912;BME280;42800;53.928;27.662;2023-01-01T04:46:15;98452.41;;;6.78;100.00
56912;BME280;42800;53.928;27.662;2023-01-01T04:48:42;98447.13;;;6.85;100.00
56912;BME280;42800;53.928;27.662;2023-01-01T04:51:10;98440.94;;;6.88;100.00
56912;BME280;42800;53.928;27.662;2023-01-01T04:53:37;98435.56;;;6.92;100.00
56912;BME280;42800;53.928;27.662;2023-01-01T04:56:03;98430.78;;;7.04;100.00
56912;BME280;42800;53.928;27.662;2023-01-01T04:58:30;98444.50;;;6.73;100.00
56912;BME280;42800;53.928;27.662;2023-01-01T05:00:56;98439.28;;;7.03;100.00
56912;BME280;42800;53.928;27.662;2023-01-01T05:03:22;98446.66;;;6.83;100.00
56912;BME280;42800;53.928;27.662;2023-01-01T05:05:58;98430.84;;;6.89;100.00
56912;BME280;42800;53.928;27.662;2023-01-01T05:08:26;98436.44;;;7.15;100.00
56912;BME280;42800;53.928;27.662;2023-01-01T05:10:58;98438.75;;;7.13;100.00
56912;BME280;42800;53.928;27.662;2023-01-01T05:13:25;98436.50;;;6.99;100.00
56912;BME280;42800;53.928;27.662;2023-01-01T05:15:51;98440.94;;;7.27;100.00
56912;BME280;42800;53.928;27.662;2023-01-01T05:18:17;98439.94;;;7.35;100.00
56912;BME280;42800;53.928;27.662;2023-01-01T05:20:43;98454.44;;;7.20;100.00
56912;BME280;42800;53.928;27.662;2023-01-01T05:23:09;98455.06;;;7.32;100.00
56912;BME280;42800;53.928;27.662;2023-01-01T05:25:36;98463.19;;;7.29;100.00
56912;BME280;42800;53.928;27.662;2023-01-01T05:28:03;98448.19;;;7.19;100.00
56912;BME280;42800;53.928;27.662;2023-01-01T05:30:29;98468.69;;;7.32;100.00
56912;BME280;42800;53.928;27.662;2023-01-01T05:32:55;98467.50;;;7.30;100.00
56912;BME280;42800;53.928;27.662;2023-01-01T05:35:22;98459.81;;;7.16;100.00
56912;BME280;42800;53.928;27.662;2023-01-01T05:37:48;98441.66;;;7.24;100.00
56912;BME280;42800;53.928;27.662;2023-01-01T05:40:16;98471.06;;;7.34;100.00
56912;BME280;42800;53.928;27.662;2023-01-01T05:42:42;98474.88;;;7.29;100.00
56912;BME280;42800;53.928;27.662;2023-01-01T05:45:12;98472.97;;;7.53;100.00
56912;BME280;42800;53.928;27.662;2023-01-01T05:47:38;98471.34;;;7.48;100.00
56912;BME280;42800;53.928;27.662;2023-01-01T05:50:05;98476.09;;;7.32;100.00
56912;BME280;42800;53.928;27.662;2023-01-01T05:52:32;98470.19;;;7.49;100.00
56912;BME280;42800;53.928;27.662;2023-01-01T05:54:58;98459.72;;;7.51;100.00
56912;BME280;42800;53.928;27.662;2023-01-01T05:57:26;98462.06;;;7.53;100.00
56912;BME280;42800;53.928;27.662;2023-01-01T05:59:53;98461.59;;;7.28;100.00
56912;BME280;42800;53.928;27.662;2023-01-01T06:02:20;98458.56;;;7.52;100.00
56912;BME280;42800;53.928;27.662;2023-01-01T06:04:46;98463.03;;;7.41;100.00
56912;BME280;42800;53.928;27.662;2023-01-01T06:07:12;98467.00;;;7.24;100.00
56912;BME280;42800;53.928;27.662;2023-01-01T06:09:38;98456.44;;;7.23;100.00
56912;BME280;42800;53.928;27.662;2023-01-01T06:12:06;98455.94;;;7.17;100.00
56912;BME280;42800;53.928;27.662;2023-01-01T06:14:32;98447.47;;;7.03;100.00
56912;BME280;42800;53.928;27.662;2023-01-01T06:16:58;98446.03;;;7.09;100.00
56912;BME280;42800;53.928;27.662;2023-01-01T06:19:25;98444.03;;;7.06;100.00
56912;BME280;42800;53.928;27.662;2023-01-01T06:21:52;98438.56;;;7.06;100.00
56912;BME280;42800;53.928;27.662;2023-01-01T06:24:18;98427.47;;;7.15;100.00
56912;BME280;42800;53.928;27.662;2023-01-01T06:26:44;98449.97;;;6.92;100.00
56912;BME280;42800;53.928;27.662;2023-01-01T06:29:10;98442.00;;;7.03;100.00
56912;BME280;42800;53.928;27.662;2023-01-01T06:31:37;98452.84;;;6.99;100.00
56912;BME280;42800;53.928;27.662;2023-01-01T06:34:03;98442.91;;;7.07;100.00
56912;BME280;42800;53.928;27.662;2023-01-01T06:36:30;98449.63;;;6.74;100.00
56912;BME280;42800;53.928;27.662;2023-01-01T06:38:56;98434.66;;;6.84;100.00
56912;BME280;42800;53.928;27.662;2023-01-01T06:41:26;98424.75;;;6.95;100.00
56912;BME280;42800;53.928;27.662;2023-01-01T06:43:53;98417.06;;;7.01;100.00
56912;BME280;42800;53.928;27.662;2023-01-01T06:46:21;98418.28;;;6.84;100.00
56912;BME280;42800;53.928;27.662;2023-01-01T06:48:50;98420.06;;;6.96;100.00
56912;BME280;42800;53.928;27.662;2023-01-01T06:51:19;98419.88;;;7.04;100.00
56912;BME280;42800;53.928;27.662;2023-01-01T06:53:48;98419.41;;;6.83;100.00
56912;BME280;42800;53.928;27.662;2023-01-01T06:56:15;98426.97;;;6.70;100.00
56912;BME280;42800;53.928;27.662;2023-01-01T06:58:41;98429.53;;;6.82;100.00
56912;BME280;42800;53.928;27.662;2023-01-01T07:01:10;98437.59;;;6.95;100.00
56912;BME280;42800;53.928;27.662;2023-01-01T07:03:37;98446.28;;;7.00;100.00
56912;BME280;42800;53.928;27.662;2023-01-01T07:06:04;98461.03;;;6.99;100.00
56912;BME280;42800;53.928;27.662;2023-01-01T07:08:31;98456.59;;;7.11;100.00
56912;BME280;42800;53.928;27.662;2023-01-01T07:10:57;98460.69;;;7.20;100.00
56912;BME280;42800;53.928;27.662;2023-01-01T07:13:24;98474.31;;;7.01;100.00
56912;BME280;42800;53.928;27.662;2023-01-01T07:15:51;98472.00;;;7.22;100.00
56912;BME280;42800;53.928;27.662;2023-01-01T07:18:17;98488.84;;;6.89;100.00
56912;BME280;42800;53.928;27.662;2023-01-01T07:20:47;98501.97;;;7.03;100.00
56912;BME280;42800;53.928;27.662;2023-01-01T07:23:14;98513.13;;;7.33;100.00
56912;BME280;42800;53.928;27.662;2023-01-01T07:25:40;98509.13;;;6.92;100.00
56912;BME280;42800;53.928;27.662;2023-01-01T07:28:07;98490.25;;;6.83;100.00
56912;BME280;42800;53.928;27.662;2023-01-01T07:30:33;98492.69;;;7.23;100.00
56912;BME280;42800;53.928;27.662;2023-01-01T07:33:00;98511.09;;;7.11;100.00
56912;BME280;42800;53.928;27.662;2023-01-01T07:35:26;98527.25;;;7.39;100.00
56912;BME280;42800;53.928;27.662;2023-01-01T07:37:52;98544.19;;;7.28;100.00
56912;BME280;42800;53.928;27.662;2023-01-01T07:40:18;98554.00;;;7.14;100.00
56912;BME280;42800;53.928;27.662;2023-01-01T07:42:44;98566.44;;;7.30;100.00
56912;BME280;42800;53.928;27.662;2023-01-01T07:45:12;98571.41;;;7.44;100.00
56912;BME280;42800;53.928;27.662;2023-01-01T07:47:38;98595.44;;;7.39;100.00
56912;BME280;42800;53.928;27.662;2023-01-01T07:50:05;98613.91;;;7.65;100.00
56912;BME280;42800;53.928;27.662;2023-01-01T07:52:31;98640.66;;;7.40;100.00
56912;BME280;42800;53.928;27.662;2023-01-01T07:54:57;98645.47;;;7.46;100.00
56912;BME280;42800;53.928;27.662;2023-01-01T07:57:23;98654.00;;;7.45;100.00
56912;BME280;42800;53.928;27.662;2023-01-01T07:59:50;98655.03;;;7.75;100.00
56912;BME280;42800;53.928;27.662;2023-01-01T08:02:16;98665.91;;;8.11;100.00
56912;BME280;42800;53.928;27.662;2023-01-01T08:04:43;98674.16;;;7.95;100.00
56912;BME280;42800;53.928;27.662;2023-01-01T08:07:09;98680.78;;;8.13;100.00
56912;BME280;42800;53.928;27.662;2023-01-01T08:09:35;98715.09;;;8.14;100.00
56912;BME280;42800;53.928;27.662;2023-01-01T08:12:01;98733.84;;;8.16;100.00
56912;BME280;42800;53.928;27.662;2023-01-01T08:14:28;98738.97;;;8.17;100.00
56912;BME280;42800;53.928;27.662;2023-01-01T08:16:54;98756.56;;;8.20;100.00
56912;BME280;42800;53.928;27.662;2023-01-01T08:19:21;98770.94;;;8.17;100.00
56912;BME280;42800;53.928;27.662;2023-01-01T08:21:47;98789.56;;;8.69;100.00
56912;BME280;42800;53.928;27.662;2023-01-01T08:24:13;98806.13;;;8.77;100.00
56912;BME280;42800;53.928;27.662;2023-01-01T08:26:39;98833.16;;;8.82;100.00
56912;BME280;42800;53.928;27.662;2023-01-01T08:29:06;98864.72;;;8.79;100.00
56912;BME280;42800;53.928;27.662;2023-01-01T08:31:32;98885.03;;;8.43;100.00
56912;BME280;42800;53.928;27.662;2023-01-01T08:33:58;98900.16;;;8.56;100.00
56912;BME280;42800;53.928;27.662;2023-01-01T08:36:25;98904.06;;;8.55;100.00
56912;BME280;42800;53.928;27.662;2023-01-01T08:38:51;98886.88;;;8.55;100.00
56912;BME280;42800;53.928;27.662;2023-01-01T08:41:18;98888.38;;;8.52;100.00
56912;BME280;42800;53.928;27.662;2023-01-01T08:43:44;98909.22;;;8.41;100.00
56912;BME280;42800;53.928;27.662;2023-01-01T08:46:10;98919.50;;;8.47;100.00
56912;BME280;42800;53.928;27.662;2023-01-01T08:48:36;98935.44;;;8.30;100.00
56912;BME280;42800;53.928;27.662;2023-01-01T08:51:03;98914.81;;;8.32;100.00
56912;BME280;42800;53.928;27.662;2023-01-01T08:53:30;98910.38;;;8.40;100.00
56912;BME280;42800;53.928;27.662;2023-01-01T08:55:58;98918.44;;;8.36;100.00
56912;BME280;42800;53.928;27.662;2023-01-01T08:58:24;98901.63;;;8.50;100.00
56912;BME280;42800;53.928;27.662;2023-01-01T09:00:52;98903.06;;;8.12;100.00
56912;BME280;42800;53.928;27.662;2023-01-01T09:03:18;98909.66;;;8.11;100.00
56912;BME280;42800;53.928;27.662;2023-01-01T09:05:44;98883.16;;;8.12;100.00
56912;BME280;42800;53.928;27.662;2023-01-01T09:08:11;98871.50;;;8.31;100.00
56912;BME280;42800;53.928;27.662;2023-01-01T09:10:38;98884.09;;;8.19;100.00
56912;BME280;42800;53.928;27.662;2023-01-01T09:13:04;98877.75;;;8.31;100.00
56912;BME280;42800;53.928;27.662;2023-01-01T09:15:30;98882.50;;;8.34;100.00
56912;BME280;42800;53.928;27.662;2023-01-01T09:17:57;98897.75;;;8.19;100.00
56912;BME280;42800;53.928;27.662;2023-01-01T09:20:23;98882.91;;;8.36;100.00
56912;BME280;42800;53.928;27.662;2023-01-01T09:22:49;98889.97;;;8.72;100.00
56912;BME280;42800;53.928;27.662;2023-01-01T09:25:15;98902.88;;;8.56;100.00
56912;BME280;42800;53.928;27.662;2023-01-01T09:27:42;98913.69;;;8.33;100.00
56912;BME280;42800;53.928;27.662;2023-01-01T09:30:09;98907.38;;;8.64;100.00
56912;BME280;42800;53.928;27.662;2023-01-01T09:32:36;98897.84;;;8.39;100.00
56912;BME280;42800;53.928;27.662;2023-01-01T09:35:02;98894.69;;;8.21;100.00
56912;BME280;42800;53.928;27.662;2023-01-01T09:37:29;98869.03;;;8.25;100.00
56912;BME280;42800;53.928;27.662;2023-01-01T09:39:55;98857.06;;;8.30;100.00
56912;BME280;42800;53.928;27.662;2023-01-01T09:42:28;98862.28;;;8.74;100.00
56912;BME280;42800;53.928;27.662;2023-01-01T09:45:08;98887.16;;;8.88;100.00
56912;BME280;42800;53.928;27.662;2023-01-01T09:47:40;98906.03;;;8.74;100.00
56912;BME280;42800;53.928;27.662;2023-01-01T09:50:12;98915.44;;;8.57;100.00
56912;BME280;42800;53.928;27.662;2023-01-01T09:52:43;98911.63;;;8.81;100.00
56912;BME280;42800;53.928;27.662;2023-01-01T09:55:17;98921.97;;;9.30;100.00
56912;BME280;42800;53.928;27.662;2023-01-01T09:57:44;98958.66;;;9.49;100.00
56912;BME280;42800;53.928;27.662;2023-01-01T10:00:15;98969.75;;;9.79;100.00
56912;BME280;42800;53.928;27.662;2023-01-01T10:02:52;98987.03;;;9.60;100.00
56912;BME280;42800;53.928;27.662;2023-01-01T10:05:28;98977.34;;;9.66;100.00
56912;BME280;42800;53.928;27.662;2023-01-01T10:08:00;98972.28;;;9.45;100.00
56912;BME280;42800;53.928;27.662;2023-01-01T10:10:38;98973.66;;;9.35;100.00
56912;BME280;42800;53.928;27.662;2023-01-01T10:13:13;98985.53;;;9.24;100.00
56912;BME280;42800;53.928;27.662;2023-01-01T10:15:53;98983.84;;;9.58;100.00
56912;BME280;42800;53.928;27.662;2023-01-01T10:18:23;98982.03;;;9.65;100.00
56912;BME280;42800;53.928;27.662;2023-01-01T10:20:58;98994.66;;;9.70;100.00
56912;BME280;42800;53.928;27.662;2023-01-01T10:23:29;98983.19;;;9.64;100.00
56912;BME280;42800;53.928;27.662;2023-01-01T10:26:02;98986.81;;;9.49;100.00
56912;BME280;42800;53.928;27.662;2023-01-01T10:28:37;98980.22;;;9.31;100.00
56912;BME280;42800;53.928;27.662;2023-01-01T10:31:14;98983.00;;;9.54;100.00
56912;BME280;42800;53.928;27.662;2023-01-01T10:33:41;98978.66;;;9.95;100.00
56912;BME280;42800;53.928;27.662;2023-01-01T10:36:10;98965.16;;;9.60;100.00
56912;BME280;42800;53.928;27.662;2023-01-01T10:38:38;98963.75;;;9.93;100.00
56912;BME280;42800;53.928;27.662;2023-01-01T10:41:07;98972.84;;;9.97;100.00
56912;BME280;42800;53.928;27.662;2023-01-01T10:43:34;98939.50;;;9.49;100.00
56912;BME280;42800;53.928;27.662;2023-01-01T10:46:01;98949.31;;;9.96;100.00
56912;BME280;42800;53.928;27.662;2023-01-01T10:48:30;98959.44;;;9.92;100.00
56912;BME280;42800;53.928;27.662;2023-01-01T10:50:57;98935.56;;;9.92;100.00
56912;BME280;42800;53.928;27.662;2023-01-01T10:53:27;98935.53;;;9.46;100.00
56912;BME280;42800;53.928;27.662;2023-01-01T10:56:03;98953.16;;;9.68;100.00
56912;BME280;42800;53.928;27.662;2023-01-01T10:58:36;98978.25;;;9.31;100.00
56912;BME280;42800;53.928;27.662;2023-01-01T11:01:04;98982.31;;;9.80;100.00
56912;BME280;42800;53.928;27.662;2023-01-01T11:03:32;98988.88;;;9.75;100.00
56912;BME280;42800;53.928;27.662;2023-01-01T11:06:04;98992.50;;;9.83;100.00
56912;BME280;42800;53.928;27.662;2023-01-01T11:08:33;98992.69;;;9.71;100.00
56912;BME280;42800;53.928;27.662;2023-01-01T11:11:01;98988.81;;;9.95;100.00
56912;BME280;42800;53.928;27.662;2023-01-01T11:13:28;98996.97;;;9.49;100.00
56912;BME280;42800;53.928;27.662;2023-01-01T11:15:55;99013.38;;;9.29;100.00
56912;BME280;42800;53.928;27.662;2023-01-01T11:18:25;99012.72;;;9.75;100.00
56912;BME280;42800;53.928;27.662;2023-01-01T11:20:54;99017.09;;;9.79;100.00
56912;BME280;42800;53.928;27.662;2023-01-01T11:23:29;99022.38;;;9.69;100.00
56912;BME280;42800;53.928;27.662;2023-01-01T11:26:02;99009.22;;;9.97;100.00
56912;BME280;42800;53.928;27.662;2023-01-01T11:28:29;98987.13;;;9.86;100.00
56912;BME280;42800;53.928;27.662;2023-01-01T11:31:05;98989.31;;;10.00;100.00
56912;BME280;42800;53.928;27.662;2023-01-01T11:33:34;98978.22;;;10.16;100.00
56912;BME280;42800;53.928;27.662;2023-01-01T11:36:04;98965.94;;;10.29;100.00
56912;BME280;42800;53.928;27.662;2023-01-01T11:38:32;98946.56;;;10.19;100.00
56912;BME280;42800;53.928;27.662;2023-01-01T11:41:02;98954.84;;;9.99;100.00
56912;BME280;42800;53.928;27.662;2023-01-01T11:43:34;98960.78;;;10.01;100.00
56912;BME280;42800;53.928;27.662;2023-01-01T11:46:06;98974.09;;;10.03;100.00
56912;BME280;42800;53.928;27.662;2023-01-01T11:48:35;98984.88;;;9.92;100.00
56912;BME280;42800;53.928;27.662;2023-01-01T11:51:04;98974.34;;;10.40;100.00
56912;BME280;42800;53.928;27.662;2023-01-01T11:53:32;98947.94;;;10.28;100.00
56912;BME280;42800;53.928;27.662;2023-01-01T11:56:04;98957.31;;;9.81;100.00
56912;BME280;42800;53.928;27.662;2023-01-01T11:58:37;98974.16;;;9.83;100.00
56912;BME280;42800;53.928;27.662;2023-01-01T12:01:13;98990.03;;;9.74;100.00
56912;BME280;42800;53.928;27.662;2023-01-01T12:03:43;98995.97;;;9.37;100.00
56912;BME280;42800;53.928;27.662;2023-01-01T12:06:18;99010.44;;;9.38;100.00
56912;BME280;42800;53.928;27.662;2023-01-01T12:08:50;99017.69;;;9.69;100.00
56912;BME280;42800;53.928;27.662;2023-01-01T12:11:22;99013.59;;;9.59;100.00
56912;BME280;42800;53.928;27.662;2023-01-01T12:13:56;99018.28;;;9.59;100.00
56912;BME280;42800;53.928;27.662;2023-01-01T12:16:35;99001.84;;;9.59;100.00
56912;BME280;42800;53.928;27.662;2023-01-01T12:19:09;98994.34;;;9.75;100.00
56912;BME280;42800;53.928;27.662;2023-01-01T12:21:40;98991.22;;;9.54;100.00
56912;BME280;42800;53.928;27.662;2023-01-01T12:24:10;98998.34;;;9.58;100.00
56912;BME280;42800;53.928;27.662;2023-01-01T12:27:00;99004.03;;;9.50;100.00
56912;BME280;42800;53.928;27.662;2023-01-01T12:29:43;99003.09;;;9.61;100.00
56912;BME280;42800;53.928;27.662;2023-01-01T12:32:19;99001.19;;;9.65;100.00
56912;BME280;42800;53.928;27.662;2023-01-01T12:34:52;99002.88;;;9.70;100.00
56912;BME280;42800;53.928;27.662;2023-01-01T12:37:29;98998.97;;;9.52;100.00
56912;BME280;42800;53.928;27.662;2023-01-01T12:40:29;99007.50;;;9.47;100.00
56912;BME280;42800;53.928;27.662;2023-01-01T12:43:04;99001.69;;;9.71;100.00
56912;BME280;42800;53.928;27.662;2023-01-01T12:48:54;99002.94;;;9.54;100.00
56912;BME280;42800;53.928;27.662;2023-01-01T12:51:30;99005.63;;;9.31;100.00
56912;BME280;42800;53.928;27.662;2023-01-01T12:54:26;99012.59;;;9.29;100.00
56912;BME280;42800;53.928;27.662;2023-01-01T12:56:57;99023.31;;;9.18;100.00
56912;BME280;42800;53.928;27.662;2023-01-01T12:59:29;99031.47;;;9.34;100.00
56912;BME280;42800;53.928;27.662;2023-01-01T13:01:59;99030.06;;;9.05;100.00
56912;BME280;42800;53.928;27.662;2023-01-01T13:04:26;99040.91;;;9.17;100.00